Suches, GA

1:54 PM EDT on April 23, 2017 (GMT -0400)
Dial GA | | Change Station

Elev 2028 ft 34.76 °N, 84.19 °W | Updated 7 minutes ago

Overcast
Overcast
59.6 °F
Feels Like 59.6 °F
N
0.0
Wind Variable Wind from NE
Gusts 4.0 mph

Today
High -- | Low -- °F
--% Chance of Precip.
Yesterday
High -- | Low -- °F
Precip. -- in
Pressure 29.84 in
Visibility 2.5 miles
Clouds Overcast 400 ft
Dew Point 58.0 °F
Humidity 94%
Rainfall 0.66 in
Snow Depth Not available.
6:54 AM 8:15 PM
Waning Crescent, 10% visible
SPECI KGVL 231740Z AUTO 09006G17KT 2 1/2SM +RA BR OVC004 14/14 A2984 RMK AO2 P0012 T01440144
Pressure 29.84 in
Visibility 2.5 miles
Clouds Overcast 400 ft
Dew Point 58.0 °F
Humidity 94%
Rainfall 0.66 in
Snow Depth Not available.
6:54 AM 8:15 PM
Waning Crescent, 10% visible
SPECI KGVL 231740Z AUTO 09006G17KT 2 1/2SM +RA BR OVC004 14/14 A2984 RMK AO2 P0012 T01440144

Get Severe Weather Alerts

Thanks for signing up!

Be on the lookout for a verification email in your inbox.

You'll start receiving the daily forecast at 8 AM.

×

10-Day Weather Forecast

Almanac

Astronomy

Apr. 23, 2017 Rise Set
Actual Time
Civil Twilight
Nautical Twilight
Astronomical Twilight
Moon
Length of Visible Light
Length of Day
Tomorrow will be .
, % of the Moon is Illuminated

Today's Extremes

State Highs State Lows

Community

WunderPhotos

WunderBlog® & News

Nearby

Air Quality

  Air Quality AQ Index Pollutant
Not available.

Snow Depth

Station Depth Elevation

Earthquake Activity

City Distance Mag. Time & Date
Minimum magnitude displayed is 2.5.

Coastal Water Temperatures

Place Temperature

Stations

Nearby Weather Stations

Station Location Temp. Windchill Dew Point Humidity Wind Precip. Elev Updated Type
                   

Watches & Warnings

There are currently no watches in effect.